sensor_id;sensor_type;location;lat;lon;timestamp;pressure;altitude;pressure_sealevel;temperature;humidity
16461;BME280;8341;42.048;24.650;2023-01-30T00:00:01;97565.03;;;3.34;73.50
16461;BME280;8341;42.048;24.650;2023-01-30T00:02:28;97565.88;;;3.31;72.86
16461;BME280;8341;42.048;24.650;2023-01-30T00:04:55;97572.63;;;3.39;72.58
16461;BME280;8341;42.048;24.650;2023-01-30T00:07:21;97554.88;;;3.41;72.32
16461;BME280;8341;42.048;24.650;2023-01-30T00:09:50;97567.94;;;3.43;71.85
16461;BME280;8341;42.048;24.650;2023-01-30T00:12:16;97564.56;;;3.39;71.70
16461;BME280;8341;42.048;24.650;2023-01-30T00:14:43;97564.28;;;3.33;72.46
16461;BME280;8341;42.048;24.650;2023-01-30T00:17:10;97564.88;;;3.41;71.53
16461;BME280;8341;42.048;24.650;2023-01-30T00:19:37;97562.25;;;3.37;71.02
16461;BME280;8341;42.048;24.650;2023-01-30T00:22:03;97557.13;;;3.43;72.41
16461;BME280;8341;42.048;24.650;2023-01-30T00:24:30;97555.13;;;3.47;72.26
16461;BME280;8341;42.048;24.650;2023-01-30T00:26:59;97540.78;;;3.34;71.87
16461;BME280;8341;42.048;24.650;2023-01-30T00:29:25;97560.66;;;3.40;72.21
16461;BME280;8341;42.048;24.650;2023-01-30T00:31:52;97553.78;;;3.39;71.98
16461;BME280;8341;42.048;24.650;2023-01-30T00:34:19;97560.19;;;3.25;72.64
16461;BME280;8341;42.048;24.650;2023-01-30T00:36:46;97554.09;;;3.21;72.44
16461;BME280;8341;42.048;24.650;2023-01-30T00:39:12;97562.13;;;3.25;71.74
16461;BME280;8341;42.048;24.650;2023-01-30T00:41:39;97558.75;;;3.21;72.36
16461;BME280;8341;42.048;24.650;2023-01-30T00:44:24;97568.34;;;3.22;71.67
16461;BME280;8341;42.048;24.650;2023-01-30T00:47:09;97571.94;;;3.35;70.44
16461;BME280;8341;42.048;24.650;2023-01-30T00:49:36;97564.34;;;3.30;71.15
16461;BME280;8341;42.048;24.650;2023-01-30T00:52:03;97564.69;;;3.32;72.72
16461;BME280;8341;42.048;24.650;2023-01-30T00:54:30;97563.44;;;3.16;71.44
16461;BME280;8341;42.048;24.650;2023-01-30T00:56:58;97560.59;;;3.24;71.99
16461;BME280;8341;42.048;24.650;2023-01-30T00:59:28;97518.28;;;3.04;71.73
16461;BME280;8341;42.048;24.650;2023-01-30T01:01:55;97557.56;;;3.22;70.64
16461;BME280;8341;42.048;24.650;2023-01-30T01:04:22;97554.19;;;3.17;71.40
16461;BME280;8341;42.048;24.650;2023-01-30T01:06:48;97562.13;;;3.25;69.00
16461;BME280;8341;42.048;24.650;2023-01-30T01:09:15;97561.03;;;3.22;70.70
16461;BME280;8341;42.048;24.650;2023-01-30T01:11:42;97557.84;;;3.07;70.93
16461;BME280;8341;42.048;24.650;2023-01-30T01:14:09;97560.41;;;3.14;71.26
16461;BME280;8341;42.048;24.650;2023-01-30T01:16:37;97553.22;;;3.08;72.14
16461;BME280;8341;42.048;24.650;2023-01-30T01:19:04;97557.16;;;3.03;71.52
16461;BME280;8341;42.048;24.650;2023-01-30T01:21:31;97558.00;;;3.00;72.48
16461;BME280;8341;42.048;24.650;2023-01-30T01:23:58;97556.81;;;3.01;71.49
16461;BME280;8341;42.048;24.650;2023-01-30T01:26:25;97539.53;;;2.99;72.27
16461;BME280;8341;42.048;24.650;2023-01-30T01:28:53;97544.53;;;3.00;71.74
16461;BME280;8341;42.048;24.650;2023-01-30T01:31:20;97515.16;;;2.86;71.79
16461;BME280;8341;42.048;24.650;2023-01-30T01:33:50;97551.28;;;3.08;71.55
16461;BME280;8341;42.048;24.650;2023-01-30T01:36:17;97545.41;;;3.13;71.60
16461;BME280;8341;42.048;24.650;2023-01-30T01:38:44;97539.81;;;3.04;72.68
16461;BME280;8341;42.048;24.650;2023-01-30T01:41:11;97537.94;;;3.01;72.45
16461;BME280;8341;42.048;24.650;2023-01-30T01:44:00;97545.34;;;2.97;71.44
16461;BME280;8341;42.048;24.650;2023-01-30T01:46:31;97541.19;;;2.93;71.68
16461;BME280;8341;42.048;24.650;2023-01-30T01:49:02;97539.06;;;2.84;71.45
16461;BME280;8341;42.048;24.650;2023-01-30T01:51:33;97538.56;;;2.89;72.64
16461;BME280;8341;42.048;24.650;2023-01-30T01:54:03;97529.88;;;2.82;72.41
16461;BME280;8341;42.048;24.650;2023-01-30T01:56:32;97535.16;;;2.85;72.65
16461;BME280;8341;42.048;24.650;2023-01-30T01:59:02;97528.41;;;2.77;72.43
16461;BME280;8341;42.048;24.650;2023-01-30T02:01:30;97494.81;;;2.62;72.15
16461;BME280;8341;42.048;24.650;2023-01-30T02:04:02;97515.63;;;2.81;72.60
16461;BME280;8341;42.048;24.650;2023-01-30T02:06:30;97490.28;;;2.59;72.89
16461;BME280;8341;42.048;24.650;2023-01-30T02:09:01;97518.66;;;2.83;72.75
16461;BME280;8341;42.048;24.650;2023-01-30T02:11:34;97518.63;;;2.87;72.19
16461;BME280;8341;42.048;24.650;2023-01-30T02:14:02;97517.09;;;2.86;72.81
16461;BME280;8341;42.048;24.650;2023-01-30T02:16:29;97522.19;;;2.80;72.64
16461;BME280;8341;42.048;24.650;2023-01-30T02:18:56;97520.13;;;2.88;72.36
16461;BME280;8341;42.048;24.650;2023-01-30T02:21:49;97525.88;;;2.90;72.97
16461;BME280;8341;42.048;24.650;2023-01-30T02:24:52;97505.50;;;2.89;72.47
16461;BME280;8341;42.048;24.650;2023-01-30T02:33:38;97509.50;;;3.00;72.18
16461;BME280;8341;42.048;24.650;2023-01-30T02:36:14;97512.41;;;2.90;73.05
16461;BME280;8341;42.048;24.650;2023-01-30T02:38:49;97509.81;;;2.83;72.95
16461;BME280;8341;42.048;24.650;2023-01-30T02:41:25;97506.25;;;2.89;72.85
16461;BME280;8341;42.048;24.650;2023-01-30T02:44:01;97503.47;;;2.93;72.72
16461;BME280;8341;42.048;24.650;2023-01-30T02:46:37;97473.53;;;2.71;72.85
16461;BME280;8341;42.048;24.650;2023-01-30T02:49:12;97503.84;;;2.95;72.52
16461;BME280;8341;42.048;24.650;2023-01-30T02:51:43;97506.59;;;2.91;73.07
16461;BME280;8341;42.048;24.650;2023-01-30T02:54:12;97506.44;;;2.98;73.10
16461;BME280;8341;42.048;24.650;2023-01-30T02:56:44;97505.97;;;3.03;73.07
16461;BME280;8341;42.048;24.650;2023-01-30T02:59:14;97507.00;;;3.09;72.74
16461;BME280;8341;42.048;24.650;2023-01-30T03:05:15;97509.75;;;3.06;73.12
16461;BME280;8341;42.048;24.650;2023-01-30T03:07:49;97493.69;;;3.02;72.58
16461;BME280;8341;42.048;24.650;2023-01-30T03:10:29;97498.59;;;3.07;72.39
16461;BME280;8341;42.048;24.650;2023-01-30T03:13:04;97495.47;;;2.89;72.93
16461;BME280;8341;42.048;24.650;2023-01-30T03:15:39;97504.13;;;3.00;73.38
16461;BME280;8341;42.048;24.650;2023-01-30T03:18:08;97494.66;;;2.92;73.52
16461;BME280;8341;42.048;24.650;2023-01-30T03:20:38;97498.66;;;2.84;72.99
16461;BME280;8341;42.048;24.650;2023-01-30T03:23:05;97494.91;;;2.98;73.41
16461;BME280;8341;42.048;24.650;2023-01-30T03:25:33;97483.59;;;2.87;73.63
16461;BME280;8341;42.048;24.650;2023-01-30T03:28:02;97451.06;;;2.58;73.80
16461;BME280;8341;42.048;24.650;2023-01-30T03:30:30;97477.59;;;2.79;73.64
16461;BME280;8341;42.048;24.650;2023-01-30T03:32:57;97475.59;;;2.83;74.35
16461;BME280;8341;42.048;24.650;2023-01-30T03:35:24;97482.50;;;2.84;73.05
16461;BME280;8341;42.048;24.650;2023-01-30T03:37:52;97471.50;;;2.75;73.55
16461;BME280;8341;42.048;24.650;2023-01-30T03:40:19;97472.47;;;2.65;74.69
16461;BME280;8341;42.048;24.650;2023-01-30T03:42:46;97476.88;;;2.75;74.35
16461;BME280;8341;42.048;24.650;2023-01-30T03:45:12;97469.66;;;2.72;74.57
16461;BME280;8341;42.048;24.650;2023-01-30T03:47:39;97467.72;;;2.73;73.28
16461;BME280;8341;42.048;24.650;2023-01-30T03:50:07;97393.31;;;2.23;73.80
16461;BME280;8341;42.048;24.650;2023-01-30T03:52:35;97441.22;;;2.51;73.40
16461;BME280;8341;42.048;24.650;2023-01-30T03:55:03;97473.53;;;2.71;73.92
16461;BME280;8341;42.048;24.650;2023-01-30T03:57:30;97480.06;;;2.70;74.22
16461;BME280;8341;42.048;24.650;2023-01-30T03:59:57;97472.34;;;2.72;73.68
16461;BME280;8341;42.048;24.650;2023-01-30T04:02:24;97475.88;;;2.69;74.15
16461;BME280;8341;42.048;24.650;2023-01-30T04:04:50;97477.84;;;2.65;73.22
16461;BME280;8341;42.048;24.650;2023-01-30T04:07:17;97480.88;;;2.67;73.90
16461;BME280;8341;42.048;24.650;2023-01-30T04:09:44;97474.34;;;2.68;73.82
16461;BME280;8341;42.048;24.650;2023-01-30T04:12:12;97470.88;;;2.68;73.91
16461;BME280;8341;42.048;24.650;2023-01-30T04:14:39;97464.06;;;2.63;73.66
16461;BME280;8341;42.048;24.650;2023-01-30T04:17:06;97473.56;;;2.68;73.57
16461;BME280;8341;42.048;24.650;2023-01-30T04:19:32;97478.63;;;2.66;73.83
16461;BME280;8341;42.048;24.650;2023-01-30T04:21:59;97469.56;;;2.56;73.58
16461;BME280;8341;42.048;24.650;2023-01-30T04:24:26;97469.50;;;2.60;74.16
16461;BME280;8341;42.048;24.650;2023-01-30T04:26:53;97477.38;;;2.50;73.88
16461;BME280;8341;42.048;24.650;2023-01-30T04:29:21;97467.13;;;2.42;74.10
16461;BME280;8341;42.048;24.650;2023-01-30T04:31:47;97475.09;;;2.49;73.89
16461;BME280;8341;42.048;24.650;2023-01-30T04:34:14;97453.00;;;2.38;73.44
16461;BME280;8341;42.048;24.650;2023-01-30T04:36:41;97470.44;;;2.49;74.20
16461;BME280;8341;42.048;24.650;2023-01-30T04:39:08;97467.75;;;2.49;74.46
16461;BME280;8341;42.048;24.650;2023-01-30T04:41:35;97476.25;;;2.48;74.36
16461;BME280;8341;42.048;24.650;2023-01-30T04:44:01;97467.22;;;2.58;73.68
16461;BME280;8341;42.048;24.650;2023-01-30T04:46:30;97468.13;;;2.51;73.58
16461;BME280;8341;42.048;24.650;2023-01-30T04:48:56;97470.81;;;2.51;73.12
16461;BME280;8341;42.048;24.650;2023-01-30T04:51:23;97472.19;;;2.40;74.12
16461;BME280;8341;42.048;24.650;2023-01-30T04:53:50;97475.91;;;2.46;73.56
16461;BME280;8341;42.048;24.650;2023-01-30T04:56:17;97468.72;;;2.39;74.18
16461;BME280;8341;42.048;24.650;2023-01-30T04:58:43;97473.16;;;2.49;74.19
16461;BME280;8341;42.048;24.650;2023-01-30T05:01:14;97454.28;;;2.30;73.75
16461;BME280;8341;42.048;24.650;2023-01-30T05:03:43;97467.91;;;2.42;73.94
16461;BME280;8341;42.048;24.650;2023-01-30T05:06:10;97470.16;;;2.44;73.98
16461;BME280;8341;42.048;24.650;2023-01-30T05:08:36;97468.88;;;2.52;73.26
16461;BME280;8341;42.048;24.650;2023-01-30T05:11:03;97466.53;;;2.54;72.88
16461;BME280;8341;42.048;24.650;2023-01-30T05:13:30;97466.59;;;2.50;73.78
16461;BME280;8341;42.048;24.650;2023-01-30T05:15:57;97477.31;;;2.54;73.74
16461;BME280;8341;42.048;24.650;2023-01-30T05:18:24;97475.09;;;2.49;72.97
16461;BME280;8341;42.048;24.650;2023-01-30T05:20:52;97469.78;;;2.45;73.08
16461;BME280;8341;42.048;24.650;2023-01-30T05:23:19;97470.44;;;2.49;73.10
16461;BME280;8341;42.048;24.650;2023-01-30T05:25:46;97479.78;;;2.45;72.52
16461;BME280;8341;42.048;24.650;2023-01-30T05:28:13;97474.00;;;2.46;72.94
16461;BME280;8341;42.048;24.650;2023-01-30T05:30:40;97471.50;;;2.36;73.43
16461;BME280;8341;42.048;24.650;2023-01-30T05:33:06;97465.97;;;2.43;72.47
16461;BME280;8341;42.048;24.650;2023-01-30T05:35:33;97462.66;;;2.55;72.36
16461;BME280;8341;42.048;24.650;2023-01-30T05:38:01;97454.59;;;2.35;71.87
16461;BME280;8341;42.048;24.650;2023-01-30T05:40:28;97468.25;;;2.44;72.68
16461;BME280;8341;42.048;24.650;2023-01-30T05:42:55;97471.56;;;2.52;72.53
16461;BME280;8341;42.048;24.650;2023-01-30T05:45:22;97468.31;;;2.41;72.59
16461;BME280;8341;42.048;24.650;2023-01-30T06:04:04;97481.53;;;2.75;69.96
16461;BME280;8341;42.048;24.650;2023-01-30T06:06:31;97474.41;;;2.84;68.85
16461;BME280;8341;42.048;24.650;2023-01-30T06:08:58;97464.88;;;2.60;70.45
16461;BME280;8341;42.048;24.650;2023-01-30T06:11:24;97476.06;;;2.59;69.80
16461;BME280;8341;42.048;24.650;2023-01-30T06:13:52;97470.44;;;2.49;70.37
16461;BME280;8341;42.048;24.650;2023-01-30T06:16:19;97467.56;;;2.40;71.20
16461;BME280;8341;42.048;24.650;2023-01-30T06:18:46;97477.41;;;2.47;70.63
16461;BME280;8341;42.048;24.650;2023-01-30T06:21:14;97485.88;;;2.49;71.18
16461;BME280;8341;42.048;24.650;2023-01-30T06:23:42;97477.56;;;2.40;71.45
16461;BME280;8341;42.048;24.650;2023-01-30T06:26:09;97479.78;;;2.45;71.27
16461;BME280;8341;42.048;24.650;2023-01-30T06:28:36;97482.06;;;2.46;71.24
16461;BME280;8341;42.048;24.650;2023-01-30T06:31:05;97484.28;;;2.51;71.39
16461;BME280;8341;42.048;24.650;2023-01-30T06:33:31;97473.63;;;2.44;71.18
16461;BME280;8341;42.048;24.650;2023-01-30T06:35:58;97479.28;;;2.50;71.50
16461;BME280;8341;42.048;24.650;2023-01-30T06:38:27;97489.59;;;2.55;71.05
16461;BME280;8341;42.048;24.650;2023-01-30T06:40:54;97482.22;;;2.59;71.18
16461;BME280;8341;42.048;24.650;2023-01-30T06:43:20;97473.84;;;2.53;71.92
16461;BME280;8341;42.048;24.650;2023-01-30T06:45:47;97494.34;;;2.67;71.61
16461;BME280;8341;42.048;24.650;2023-01-30T06:48:14;97486.94;;;2.75;71.15
16461;BME280;8341;42.048;24.650;2023-01-30T06:50:41;97491.94;;;2.73;71.36
16461;BME280;8341;42.048;24.650;2023-01-30T06:53:09;97493.13;;;2.72;71.80
16461;BME280;8341;42.048;24.650;2023-01-30T06:55:37;97481.50;;;2.55;72.07
16461;BME280;8341;42.048;24.650;2023-01-30T06:58:06;97496.50;;;2.56;72.44
16461;BME280;8341;42.048;24.650;2023-01-30T07:00:34;97491.78;;;2.60;73.21
16461;BME280;8341;42.048;24.650;2023-01-30T07:03:01;97488.56;;;2.69;73.65
16461;BME280;8341;42.048;24.650;2023-01-30T07:05:29;97490.72;;;2.77;73.10
16461;BME280;8341;42.048;24.650;2023-01-30T07:07:56;97474.69;;;2.70;73.50
16461;BME280;8341;42.048;24.650;2023-01-30T07:10:23;97492.06;;;2.85;72.85
16461;BME280;8341;42.048;24.650;2023-01-30T07:12:52;97489.34;;;2.69;72.83
16461;BME280;8341;42.048;24.650;2023-01-30T07:15:18;97493.66;;;2.63;73.77
16461;BME280;8341;42.048;24.650;2023-01-30T07:17:45;97485.88;;;2.69;74.86
16461;BME280;8341;42.048;24.650;2023-01-30T07:20:12;97480.00;;;2.74;74.53
16461;BME280;8341;42.048;24.650;2023-01-30T07:22:39;97488.50;;;2.72;75.52
16461;BME280;8341;42.048;24.650;2023-01-30T07:25:07;97486.97;;;2.71;75.98
16461;BME280;8341;42.048;24.650;2023-01-30T07:27:34;97486.63;;;2.69;75.67
16461;BME280;8341;42.048;24.650;2023-01-30T07:30:02;97469.63;;;2.52;76.36
16461;BME280;8341;42.048;24.650;2023-01-30T07:32:29;97492.41;;;2.68;76.75
16461;BME280;8341;42.048;24.650;2023-01-30T07:34:56;97496.50;;;2.56;77.06
16461;BME280;8341;42.048;24.650;2023-01-30T07:37:23;97493.31;;;2.61;77.46
16461;BME280;8341;42.048;24.650;2023-01-30T07:39:49;97488.00;;;2.58;78.20
16461;BME280;8341;42.048;24.650;2023-01-30T07:42:16;97483.72;;;2.60;78.71
16461;BME280;8341;42.048;24.650;2023-01-30T07:44:43;97475.34;;;2.54;77.13
16461;BME280;8341;42.048;24.650;2023-01-30T07:47:11;97488.06;;;2.54;78.37
16461;BME280;8341;42.048;24.650;2023-01-30T07:49:39;97481.88;;;2.34;78.13
16461;BME280;8341;42.048;24.650;2023-01-30T07:52:06;97480.94;;;2.44;78.74
16461;BME280;8341;42.048;24.650;2023-01-30T07:54:34;97476.47;;;2.57;78.17
16461;BME280;8341;42.048;24.650;2023-01-30T07:57:01;97482.81;;;2.47;79.71
16461;BME280;8341;42.048;24.650;2023-01-30T07:59:27;97485.78;;;2.52;79.33
16461;BME280;8341;42.048;24.650;2023-01-30T08:01:54;97482.00;;;2.50;79.37
16461;BME280;8341;42.048;24.650;2023-01-30T08:04:24;97482.22;;;2.59;77.92
16461;BME280;8341;42.048;24.650;2023-01-30T08:06:51;97484.34;;;2.48;78.69
16461;BME280;8341;42.048;24.650;2023-01-30T08:09:18;97481.44;;;2.59;78.83
16461;BME280;8341;42.048;24.650;2023-01-30T08:11:44;97472.19;;;2.40;80.93
16461;BME280;8341;42.048;24.650;2023-01-30T08:14:11;97486.41;;;2.40;81.84
16461;BME280;8341;42.048;24.650;2023-01-30T08:16:38;97481.06;;;2.37;81.29
16461;BME280;8341;42.048;24.650;2023-01-30T08:19:05;97471.53;;;2.32;81.15
16461;BME280;8341;42.048;24.650;2023-01-30T08:21:33;97478.63;;;2.23;81.94
16461;BME280;8341;42.048;24.650;2023-01-30T08:24:00;97466.28;;;2.25;82.17
16461;BME280;8341;42.048;24.650;2023-01-30T08:26:27;97483.06;;;2.33;82.32
16461;BME280;8341;42.048;24.650;2023-01-30T08:28:53;97475.13;;;2.26;81.89
16461;BME280;8341;42.048;24.650;2023-01-30T08:31:21;97472.19;;;2.40;82.43
16461;BME280;8341;42.048;24.650;2023-01-30T08:33:48;97478.94;;;2.28;82.14
16461;BME280;8341;42.048;24.650;2023-01-30T08:36:15;97474.41;;;2.22;82.96
16461;BME280;8341;42.048;24.650;2023-01-30T08:38:43;97461.09;;;2.15;83.39
16461;BME280;8341;42.048;24.650;2023-01-30T08:41:10;97467.53;;;2.21;83.46
16461;BME280;8341;42.048;24.650;2023-01-30T08:43:37;97471.03;;;2.18;83.92
16461;BME280;8341;42.048;24.650;2023-01-30T08:46:04;97456.41;;;2.19;83.27
16461;BME280;8341;42.048;24.650;2023-01-30T08:48:31;97460.38;;;2.11;83.93
16461;BME280;8341;42.048;24.650;2023-01-30T08:50:58;97464.25;;;2.10;83.33
16461;BME280;8341;42.048;24.650;2023-01-30T08:53:25;97462.41;;;2.26;82.86
16461;BME280;8341;42.048;24.650;2023-01-30T08:55:53;97464.41;;;2.22;82.03
16461;BME280;8341;42.048;24.650;2023-01-30T08:58:20;97466.09;;;2.36;80.18
16461;BME280;8341;42.048;24.650;2023-01-30T09:00:47;97464.41;;;2.22;80.33
16461;BME280;8341;42.048;24.650;2023-01-30T09:03:15;97454.91;;;2.18;79.84
16461;BME280;8341;42.048;24.650;2023-01-30T09:05:42;97460.75;;;2.13;80.40
16461;BME280;8341;42.048;24.650;2023-01-30T09:08:09;97459.38;;;2.24;80.11
16461;BME280;8341;42.048;24.650;2023-01-30T09:10:36;97452.75;;;2.29;79.63
16461;BME280;8341;42.048;24.650;2023-01-30T09:13:07;97455.81;;;2.31;78.14
16461;BME280;8341;42.048;24.650;2023-01-30T09:15:34;97447.81;;;2.27;78.33
16461;BME280;8341;42.048;24.650;2023-01-30T09:18:01;97442.56;;;2.40;77.93
16461;BME280;8341;42.048;24.650;2023-01-30T09:20:29;97443.00;;;2.38;77.92
16461;BME280;8341;42.048;24.650;2023-01-30T09:22:56;97440.84;;;2.49;76.33
16461;BME280;8341;42.048;24.650;2023-01-30T09:25:22;97438.28;;;2.42;76.79
16461;BME280;8341;42.048;24.650;2023-01-30T09:27:49;97436.09;;;2.37;76.58
16461;BME280;8341;42.048;24.650;2023-01-30T09:30:18;97435.84;;;2.51;76.95
16461;BME280;8341;42.048;24.650;2023-01-30T09:32:45;97434.59;;;2.56;75.50
16461;BME280;8341;42.048;24.650;2023-01-30T09:35:12;97412.81;;;2.47;75.67
16461;BME280;8341;42.048;24.650;2023-01-30T09:37:46;97420.84;;;2.70;74.78
16461;BME280;8341;42.048;24.650;2023-01-30T09:40:14;97414.63;;;2.73;74.49
16461;BME280;8341;42.048;24.650;2023-01-30T09:42:53;97414.44;;;2.64;74.75
16461;BME280;8341;42.048;24.650;2023-01-30T09:45:44;97399.28;;;2.70;74.64
16461;BME280;8341;42.048;24.650;2023-01-30T09:48:16;97400.59;;;2.62;72.99
16461;BME280;8341;42.048;24.650;2023-01-30T09:51:06;97394.72;;;2.67;73.56
16461;BME280;8341;42.048;24.650;2023-01-30T09:53:51;97383.84;;;2.74;72.63
16461;BME280;8341;42.048;24.650;2023-01-30T09:56:21;97375.94;;;2.83;71.88
16461;BME280;8341;42.048;24.650;2023-01-30T09:58:50;97384.75;;;3.03;70.26
16461;BME280;8341;42.048;24.650;2023-01-30T10:01:35;97379.72;;;2.86;71.33
16461;BME280;8341;42.048;24.650;2023-01-30T10:04:12;97377.97;;;2.95;71.10
16461;BME280;8341;42.048;24.650;2023-01-30T10:06:47;97371.59;;;2.89;70.24
16461;BME280;8341;42.048;24.650;2023-01-30T10:09:25;97366.38;;;2.98;69.61
16461;BME280;8341;42.048;24.650;2023-01-30T10:12:03;97362.34;;;3.06;69.00
16461;BME280;8341;42.048;24.650;2023-01-30T10:14:52;97353.09;;;3.07;69.74
16461;BME280;8341;42.048;24.650;2023-01-30T10:17:33;97345.53;;;3.02;69.27
16461;BME280;8341;42.048;24.650;2023-01-30T10:20:16;97345.84;;;3.04;69.28
16461;BME280;8341;42.048;24.650;2023-01-30T10:23:00;97339.72;;;3.20;68.19
16461;BME280;8341;42.048;24.650;2023-01-30T10:25:32;97336.28;;;3.36;66.74
16461;BME280;8341;42.048;24.650;2023-01-30T10:28:05;97319.09;;;3.46;67.73
16461;BME280;8341;42.048;24.650;2023-01-30T10:30:35;97327.31;;;3.55;66.68
16461;BME280;8341;42.048;24.650;2023-01-30T10:33:06;97317.22;;;3.59;66.75
16461;BME280;8341;42.048;24.650;2023-01-30T10:35:38;97302.59;;;3.28;65.94
16461;BME280;8341;42.048;24.650;2023-01-30T10:38:17;97304.16;;;3.57;66.69
16461;BME280;8341;42.048;24.650;2023-01-30T10:40:50;97297.91;;;3.60;65.28
16461;BME280;8341;42.048;24.650;2023-01-30T10:43:22;97293.09;;;3.68;66.02
16461;BME280;8341;42.048;24.650;2023-01-30T10:45:56;97297.66;;;3.71;66.34
16461;BME280;8341;42.048;24.650;2023-01-30T10:48:44;97292.34;;;3.67;65.75
16461;BME280;8341;42.048;24.650;2023-01-30T10:51:21;97282.50;;;3.61;65.67
16461;BME280;8341;42.048;24.650;2023-01-30T10:53:54;97280.25;;;3.59;65.52
16461;BME280;8341;42.048;24.650;2023-01-30T10:56:32;97266.91;;;3.52;65.60
16461;BME280;8341;42.048;24.650;2023-01-30T10:59:21;97269.22;;;3.38;65.88
16461;BME280;8341;42.048;24.650;2023-01-30T11:01:59;97267.44;;;3.47;65.32
16461;BME280;8341;42.048;24.650;2023-01-30T11:04:37;97255.88;;;3.63;65.23
16461;BME280;8341;42.048;24.650;2023-01-30T11:07:09;97253.03;;;3.54;64.71
16461;BME280;8341;42.048;24.650;2023-01-30T11:09:38;97243.41;;;3.53;65.17
16461;BME280;8341;42.048;24.650;2023-01-30T11:12:05;97237.03;;;3.47;65.67
16461;BME280;8341;42.048;24.650;2023-01-30T11:14:50;97232.41;;;3.47;65.95
16461;BME280;8341;42.048;24.650;2023-01-30T11:17:18;97226.03;;;3.41;65.50
16461;BME280;8341;42.048;24.650;2023-01-30T11:19:53;97227.75;;;3.48;65.28
16461;BME280;8341;42.048;24.650;2023-01-30T11:22:23;97224.19;;;3.38;65.64
16461;BME280;8341;42.048;24.650;2023-01-30T11:25:00;97223.50;;;3.34;65.84
16461;BME280;8341;42.048;24.650;2023-01-30T11:27:28;97210.25;;;3.40;65.71
16461;BME280;8341;42.048;24.650;2023-01-30T11:30:03;97208.84;;;3.35;65.30
16461;BME280;8341;42.048;24.650;2023-01-30T11:32:31;97211.06;;;3.53;65.79
16461;BME280;8341;42.048;24.650;2023-01-30T11:35:18;97192.16;;;3.40;64.90
16461;BME280;8341;42.048;24.650;2023-01-30T11:37:46;97192.94;;;3.25;64.62
16461;BME280;8341;42.048;24.650;2023-01-30T11:40:23;97188.38;;;3.38;65.88
16461;BME280;8341;42.048;24.650;2023-01-30T11:42:51;97185.91;;;3.43;64.56
16461;BME280;8341;42.048;24.650;2023-01-30T11:45:21;97180.41;;;3.47;65.00
16461;BME280;8341;42.048;24.650;2023-01-30T11:47:52;97175.38;;;3.49;64.40
16461;BME280;8341;42.048;24.650;2023-01-30T11:50:24;97171.72;;;3.55;64.11
16461;BME280;8341;42.048;24.650;2023-01-30T11:52:52;97171.06;;;3.51;63.77
16461;BME280;8341;42.048;24.650;2023-01-30T11:55:19;97161.50;;;3.63;64.16
16461;BME280;8341;42.048;24.650;2023-01-30T11:57:49;97163.78;;;3.64;64.04
16461;BME280;8341;42.048;24.650;2023-01-30T12:00:20;97110.09;;;3.29;63.54
16461;BME280;8341;42.048;24.650;2023-01-30T12:02:48;97156.84;;;3.51;63.67
16461;BME280;8341;42.048;24.650;2023-01-30T12:05:22;97144.19;;;3.48;63.96
16461;BME280;8341;42.048;24.650;2023-01-30T12:07:50;97144.47;;;3.66;64.13
16461;BME280;8341;42.048;24.650;2023-01-30T12:10:27;97141.00;;;3.65;63.26
16461;BME280;8341;42.048;24.650;2023-01-30T12:12:55;97135.22;;;3.67;64.13
16461;BME280;8341;42.048;24.650;2023-01-30T12:15:26;97127.28;;;3.60;64.68
16461;BME280;8341;42.048;24.650;2023-01-30T12:17:58;97121.38;;;3.65;63.47
16461;BME280;8341;42.048;24.650;2023-01-30T12:20:40;97117.50;;;3.66;63.92
16461;BME280;8341;42.048;24.650;2023-01-30T12:23:15;97119.22;;;3.60;63.57
16461;BME280;8341;42.048;24.650;2023-01-30T12:25:49;97107.69;;;3.59;63.96
16461;BME280;8341;42.048;24.650;2023-01-30T12:28:26;97108.03;;;3.74;63.73
16461;BME280;8341;42.048;24.650;2023-01-30T12:30:57;97103.69;;;3.64;64.14
16461;BME280;8341;42.048;24.650;2023-01-30T12:33:29;97109.31;;;3.57;64.88
16461;BME280;8341;42.048;24.650;2023-01-30T12:36:07;97103.94;;;3.82;64.18
16461;BME280;8341;42.048;24.650;2023-01-30T12:38:55;97104.03;;;3.91;64.01
16461;BME280;8341;42.048;24.650;2023-01-30T12:41:32;97110.84;;;3.83;65.12
16461;BME280;8341;42.048;24.650;2023-01-30T12:44:12;97101.88;;;3.86;64.52
16461;BME280;8341;42.048;24.650;2023-01-30T12:46:56;97096.50;;;3.86;65.06
16461;BME280;8341;42.048;24.650;2023-01-30T12:49:37;97090.00;;;3.58;65.89
16461;BME280;8341;42.048;24.650;2023-01-30T12:52:27;97090.44;;;3.69;65.70
16461;BME280;8341;42.048;24.650;2023-01-30T12:55:03;97100.91;;;3.80;65.93
16461;BME280;8341;42.048;24.650;2023-01-30T12:57:43;97085.81;;;3.83;66.33
16461;BME280;8341;42.048;24.650;2023-01-30T13:00:26;97083.81;;;3.45;65.76
16461;BME280;8341;42.048;24.650;2023-01-30T13:05:48;97066.06;;;3.73;66.48
16461;BME280;8341;42.048;24.650;2023-01-30T13:08:31;97064.34;;;3.66;65.99
16461;BME280;8341;42.048;24.650;2023-01-30T13:11:10;97063.91;;;3.68;64.97
16461;BME280;8341;42.048;24.650;2023-01-30T13:13:45;97062.56;;;3.47;66.07
16461;BME280;8341;42.048;24.650;2023-01-30T13:16:23;97061.94;;;3.43;66.15
16461;BME280;8341;42.048;24.650;2023-01-30T13:18:56;97057.94;;;3.48;65.74
16461;BME280;8341;42.048;24.650;2023-01-30T13:21:32;97055.69;;;3.59;65.59
16461;BME280;8341;42.048;24.650;2023-01-30T13:24:12;97058.59;;;3.52;65.86
16461;BME280;8341;42.048;24.650;2023-01-30T13:26:42;97048.03;;;3.70;65.88
16461;BME280;8341;42.048;24.650;2023-01-30T13:29:13;97044.69;;;3.66;65.45
16461;BME280;8341;42.048;24.650;2023-01-30T13:31:49;97045.88;;;3.65;65.18
16461;BME280;8341;42.048;24.650;2023-01-30T13:34:24;97048.56;;;3.77;65.30
16461;BME280;8341;42.048;24.650;2023-01-30T13:36:54;97045.78;;;3.81;65.03
16461;BME280;8341;42.048;24.650;2023-01-30T13:39:32;97043.84;;;3.69;65.77
16461;BME280;8341;42.048;24.650;2023-01-30T13:42:05;97037.16;;;3.73;65.39
16461;BME280;8341;42.048;24.650;2023-01-30T13:44:37;97030.78;;;3.55;66.60
16461;BME280;8341;42.048;24.650;2023-01-30T13:47:13;97033.91;;;3.78;66.45
16461;BME280;8341;42.048;24.650;2023-01-30T13:49:49;97032.94;;;3.72;65.83
16461;BME280;8341;42.048;24.650;2023-01-30T13:52:23;97029.06;;;3.86;65.58
16461;BME280;8341;42.048;24.650;2023-01-30T13:55:01;97027.97;;;3.96;65.28